sensor_id;sensor_type;location;lat;lon;timestamp;P1;P2;P0
70691;PMS5003;58267;51.156;17.044;2022-11-02T00:00:34;44;42;
70691;PMS5003;58267;51.156;17.044;2022-11-02T00:03:00;50;47;
70691;PMS5003;58267;51.156;17.044;2022-11-02T00:05:26;47;40;
70691;PMS5003;58267;51.156;17.044;2022-11-02T00:07:51;39;37;
70691;PMS5003;58267;51.156;17.044;2022-11-02T00:10:16;44;43;
70691;PMS5003;58267;51.156;17.044;2022-11-02T00:12:41;41;39;
70691;PMS5003;58267;51.156;17.044;2022-11-02T00:15:07;47;43;
70691;PMS5003;58267;51.156;17.044;2022-11-02T00:17:32;47;43;
70691;PMS5003;58267;51.156;17.044;2022-11-02T00:19:57;49;44;
70691;PMS5003;58267;51.156;17.044;2022-11-02T00:22:23;50;50;
70691;PMS5003;58267;51.156;17.044;2022-11-02T00:24:49;41;38;
70691;PMS5003;58267;51.156;17.044;2022-11-02T00:27:14;43;40;
70691;PMS5003;58267;51.156;17.044;2022-11-02T00:29:39;46;42;
70691;PMS5003;58267;51.156;17.044;2022-11-02T00:32:05;46;43;
70691;PMS5003;58267;51.156;17.044;2022-11-02T00:34:30;42;40;
70691;PMS5003;58267;51.156;17.044;2022-11-02T00:36:56;49;45;
70691;PMS5003;58267;51.156;17.044;2022-11-02T00:39:22;54;50;
70691;PMS5003;58267;51.156;17.044;2022-11-02T00:41:48;46;46;
70691;PMS5003;58267;51.156;17.044;2022-11-02T00:44:13;46;44;
70691;PMS5003;58267;51.156;17.044;2022-11-02T00:46:39;41;40;
70691;PMS5003;58267;51.156;17.044;2022-11-02T00:49:04;45;43;
70691;PMS5003;58267;51.156;17.044;2022-11-02T00:51:30;45;45;
70691;PMS5003;58267;51.156;17.044;2022-11-02T00:53:55;47;43;
70691;PMS5003;58267;51.156;17.044;2022-11-02T00:56:20;37;37;
70691;PMS5003;58267;51.156;17.044;2022-11-02T00:58:46;45;45;
70691;PMS5003;58267;51.156;17.044;2022-11-02T01:01:15;24;24;
70691;PMS5003;58267;51.156;17.044;2022-11-02T01:03:40;64;53;
70691;PMS5003;58267;51.156;17.044;2022-11-02T01:06:07;51;41;
70691;PMS5003;58267;51.156;17.044;2022-11-02T01:08:31;57;52;
70691;PMS5003;58267;51.156;17.044;2022-11-02T01:10:56;50;46;
70691;PMS5003;58267;51.156;17.044;2022-11-02T01:13:22;46;42;
70691;PMS5003;58267;51.156;17.044;2022-11-02T01:15:47;46;44;
70691;PMS5003;58267;51.156;17.044;2022-11-02T01:18:12;50;48;
70691;PMS5003;58267;51.156;17.044;2022-11-02T01:20:38;47;44;
70691;PMS5003;58267;51.156;17.044;2022-11-02T01:23:03;50;48;
70691;PMS5003;58267;51.156;17.044;2022-11-02T01:25:29;45;43;
70691;PMS5003;58267;51.156;17.044;2022-11-02T01:27:54;49;46;
70691;PMS5003;58267;51.156;17.044;2022-11-02T01:30:19;46;44;
70691;PMS5003;58267;51.156;17.044;2022-11-02T01:32:45;42;39;
70691;PMS5003;58267;51.156;17.044;2022-11-02T01:35:10;38;37;
70691;PMS5003;58267;51.156;17.044;2022-11-02T01:37:35;50;49;
70691;PMS5003;58267;51.156;17.044;2022-11-02T01:40:01;44;40;
70691;PMS5003;58267;51.156;17.044;2022-11-02T01:42:26;41;38;
70691;PMS5003;58267;51.156;17.044;2022-11-02T01:44:51;50;46;
70691;PMS5003;58267;51.156;17.044;2022-11-02T01:47:17;43;42;
70691;PMS5003;58267;51.156;17.044;2022-11-02T01:49:42;45;41;
70691;PMS5003;58267;51.156;17.044;2022-11-02T01:52:08;42;41;
70691;PMS5003;58267;51.156;17.044;2022-11-02T01:54:34;43;40;
70691;PMS5003;58267;51.156;17.044;2022-11-02T01:57:00;42;41;
70691;PMS5003;58267;51.156;17.044;2022-11-02T01:59:25;42;39;
70691;PMS5003;58267;51.156;17.044;2022-11-02T02:01:49;51;45;
70691;PMS5003;58267;51.156;17.044;2022-11-02T02:04:14;41;37;
70691;PMS5003;58267;51.156;17.044;2022-11-02T02:06:40;43;40;
70691;PMS5003;58267;51.156;17.044;2022-11-02T02:09:06;43;42;
70691;PMS5003;58267;51.156;17.044;2022-11-02T02:11:32;45;44;
70691;PMS5003;58267;51.156;17.044;2022-11-02T02:13:58;41;40;
70691;PMS5003;58267;51.156;17.044;2022-11-02T02:16:25;48;43;
70691;PMS5003;58267;51.156;17.044;2022-11-02T02:18:49;43;39;
70691;PMS5003;58267;51.156;17.044;2022-11-02T02:21:17;42;41;
70691;PMS5003;58267;51.156;17.044;2022-11-02T02:26:13;42;39;
70691;PMS5003;58267;51.156;17.044;2022-11-02T02:28:32;51;45;
70691;PMS5003;58267;51.156;17.044;2022-11-02T02:30:57;33;32;
70691;PMS5003;58267;51.156;17.044;2022-11-02T02:33:24;47;44;
70691;PMS5003;58267;51.156;17.044;2022-11-02T02:35:48;37;36;
70691;PMS5003;58267;51.156;17.044;2022-11-02T02:38:13;33;32;
70691;PMS5003;58267;51.156;17.044;2022-11-02T02:40:39;42;40;
70691;PMS5003;58267;51.156;17.044;2022-11-02T02:43:05;42;38;
70691;PMS5003;58267;51.156;17.044;2022-11-02T02:45:32;35;32;
70691;PMS5003;58267;51.156;17.044;2022-11-02T02:48:02;45;43;
70691;PMS5003;58267;51.156;17.044;2022-11-02T02:50:22;37;35;
70691;PMS5003;58267;51.156;17.044;2022-11-02T02:52:46;39;35;
70691;PMS5003;58267;51.156;17.044;2022-11-02T02:55:12;40;34;
70691;PMS5003;58267;51.156;17.044;2022-11-02T02:57:37;33;33;
70691;PMS5003;58267;51.156;17.044;2022-11-02T03:00:02;34;33;
70691;PMS5003;58267;51.156;17.044;2022-11-02T03:02:29;35;32;
70691;PMS5003;58267;51.156;17.044;2022-11-02T03:04:53;34;33;
70691;PMS5003;58267;51.156;17.044;2022-11-02T03:07:19;32;31;
70691;PMS5003;58267;51.156;17.044;2022-11-02T03:09:44;35;32;
70691;PMS5003;58267;51.156;17.044;2022-11-02T03:12:13;34;33;
70691;PMS5003;58267;51.156;17.044;2022-11-02T03:14:36;32;31;
70691;PMS5003;58267;51.156;17.044;2022-11-02T03:17:04;31;30;
70691;PMS5003;58267;51.156;17.044;2022-11-02T03:19:28;31;31;
70691;PMS5003;58267;51.156;17.044;2022-11-02T03:21:54;34;33;
70691;PMS5003;58267;51.156;17.044;2022-11-02T03:24:17;30;27;
70691;PMS5003;58267;51.156;17.044;2022-11-02T03:26:43;37;36;
70691;PMS5003;58267;51.156;17.044;2022-11-02T03:29:07;33;31;
70691;PMS5003;58267;51.156;17.044;2022-11-02T03:31:34;33;31;
70691;PMS5003;58267;51.156;17.044;2022-11-02T03:34:00;33;29;
70691;PMS5003;58267;51.156;17.044;2022-11-02T03:36:26;31;29;
70691;PMS5003;58267;51.156;17.044;2022-11-02T03:38:50;32;32;
70691;PMS5003;58267;51.156;17.044;2022-11-02T03:41:15;41;39;
70691;PMS5003;58267;51.156;17.044;2022-11-02T03:43:41;41;40;
70691;PMS5003;58267;51.156;17.044;2022-11-02T03:46:07;40;39;
70691;PMS5003;58267;51.156;17.044;2022-11-02T03:48:33;39;38;
70691;PMS5003;58267;51.156;17.044;2022-11-02T03:50:57;45;43;
70691;PMS5003;58267;51.156;17.044;2022-11-02T03:53:25;50;47;
70691;PMS5003;58267;51.156;17.044;2022-11-02T03:55:50;42;41;
70691;PMS5003;58267;51.156;17.044;2022-11-02T03:58:15;35;32;
70691;PMS5003;58267;51.156;17.044;2022-11-02T04:00:43;40;37;
70691;PMS5003;58267;51.156;17.044;2022-11-02T04:03:05;45;41;
70691;PMS5003;58267;51.156;17.044;2022-11-02T04:05:32;43;40;
70691;PMS5003;58267;51.156;17.044;2022-11-02T04:07:56;42;41;
70691;PMS5003;58267;51.156;17.044;2022-11-02T04:10:21;59;55;
70691;PMS5003;58267;51.156;17.044;2022-11-02T04:12:47;48;47;
70691;PMS5003;58267;51.156;17.044;2022-11-02T04:15:12;60;52;
70691;PMS5003;58267;51.156;17.044;2022-11-02T04:17:37;49;46;
70691;PMS5003;58267;51.156;17.044;2022-11-02T04:20:04;45;42;
70691;PMS5003;58267;51.156;17.044;2022-11-02T04:22:29;49;47;
70691;PMS5003;58267;51.156;17.044;2022-11-02T04:24:54;45;35;
70691;PMS5003;58267;51.156;17.044;2022-11-02T04:27:20;46;43;
70691;PMS5003;58267;51.156;17.044;2022-11-02T04:29:45;44;40;
70691;PMS5003;58267;51.156;17.044;2022-11-02T04:32:10;36;35;
70691;PMS5003;58267;51.156;17.044;2022-11-02T04:34:36;37;36;
70691;PMS5003;58267;51.156;17.044;2022-11-02T04:37:01;37;34;
70691;PMS5003;58267;51.156;17.044;2022-11-02T04:39:26;36;32;
70691;PMS5003;58267;51.156;17.044;2022-11-02T04:41:52;39;34;
70691;PMS5003;58267;51.156;17.044;2022-11-02T04:44:17;36;34;
70691;PMS5003;58267;51.156;17.044;2022-11-02T04:46:44;37;36;
70691;PMS5003;58267;51.156;17.044;2022-11-02T04:49:10;46;43;
70691;PMS5003;58267;51.156;17.044;2022-11-02T04:51:35;42;39;
70691;PMS5003;58267;51.156;17.044;2022-11-02T04:54:01;45;44;
70691;PMS5003;58267;51.156;17.044;2022-11-02T04:56:27;37;35;
70691;PMS5003;58267;51.156;17.044;2022-11-02T04:58:53;39;38;
70691;PMS5003;58267;51.156;17.044;2022-11-02T05:01:17;36;34;
70691;PMS5003;58267;51.156;17.044;2022-11-02T05:03:45;37;35;
70691;PMS5003;58267;51.156;17.044;2022-11-02T05:06:09;35;33;
70691;PMS5003;58267;51.156;17.044;2022-11-02T05:08:34;39;37;
70691;PMS5003;58267;51.156;17.044;2022-11-02T05:10:59;44;40;
70691;PMS5003;58267;51.156;17.044;2022-11-02T05:13:25;48;45;
70691;PMS5003;58267;51.156;17.044;2022-11-02T05:15:50;37;35;
70691;PMS5003;58267;51.156;17.044;2022-11-02T05:18:15;43;40;
70691;PMS5003;58267;51.156;17.044;2022-11-02T05:20:48;37;31;
70691;PMS5003;58267;51.156;17.044;2022-11-02T05:23:09;48;45;
70691;PMS5003;58267;51.156;17.044;2022-11-02T05:25:34;41;38;
70691;PMS5003;58267;51.156;17.044;2022-11-02T05:28:00;36;35;
70691;PMS5003;58267;51.156;17.044;2022-11-02T05:30:27;46;40;
70691;PMS5003;58267;51.156;17.044;2022-11-02T05:32:54;40;36;
70691;PMS5003;58267;51.156;17.044;2022-11-02T05:35:18;41;35;
70691;PMS5003;58267;51.156;17.044;2022-11-02T05:37:44;31;29;
70691;PMS5003;58267;51.156;17.044;2022-11-02T05:40:09;38;36;
70691;PMS5003;58267;51.156;17.044;2022-11-02T05:42:35;29;28;
70691;PMS5003;58267;51.156;17.044;2022-11-02T05:45:00;39;36;
70691;PMS5003;58267;51.156;17.044;2022-11-02T05:47:26;30;30;
70691;PMS5003;58267;51.156;17.044;2022-11-02T05:49:51;37;35;
70691;PMS5003;58267;51.156;17.044;2022-11-02T05:52:17;31;31;
70691;PMS5003;58267;51.156;17.044;2022-11-02T05:54:42;34;31;
70691;PMS5003;58267;51.156;17.044;2022-11-02T05:57:08;35;34;
70691;PMS5003;58267;51.156;17.044;2022-11-02T05:59:33;33;32;
70691;PMS5003;58267;51.156;17.044;2022-11-02T06:02:00;48;47;
70691;PMS5003;58267;51.156;17.044;2022-11-02T06:04:25;56;53;
70691;PMS5003;58267;51.156;17.044;2022-11-02T06:06:50;52;48;
70691;PMS5003;58267;51.156;17.044;2022-11-02T06:09:16;44;44;
70691;PMS5003;58267;51.156;17.044;2022-11-02T06:11:41;51;50;
70691;PMS5003;58267;51.156;17.044;2022-11-02T06:14:07;45;44;
70691;PMS5003;58267;51.156;17.044;2022-11-02T06:16:32;52;51;
70691;PMS5003;58267;51.156;17.044;2022-11-02T06:18:57;44;41;
70691;PMS5003;58267;51.156;17.044;2022-11-02T06:21:22;45;40;
70691;PMS5003;58267;51.156;17.044;2022-11-02T06:23:48;47;42;
70691;PMS5003;58267;51.156;17.044;2022-11-02T06:26:13;44;44;
70691;PMS5003;58267;51.156;17.044;2022-11-02T06:28:39;46;45;
70691;PMS5003;58267;51.156;17.044;2022-11-02T06:31:04;40;40;
70691;PMS5003;58267;51.156;17.044;2022-11-02T06:33:29;75;73;
70691;PMS5003;58267;51.156;17.044;2022-11-02T06:35:59;65;63;
70691;PMS5003;58267;51.156;17.044;2022-11-02T06:38:19;63;56;
70691;PMS5003;58267;51.156;17.044;2022-11-02T06:43:11;47;45;
70691;PMS5003;58267;51.156;17.044;2022-11-02T06:45:36;56;53;
70691;PMS5003;58267;51.156;17.044;2022-11-02T06:48:01;45;43;
70691;PMS5003;58267;51.156;17.044;2022-11-02T06:50:26;48;45;
70691;PMS5003;58267;51.156;17.044;2022-11-02T06:52:52;57;54;
70691;PMS5003;58267;51.156;17.044;2022-11-02T06:55:17;50;49;
70691;PMS5003;58267;51.156;17.044;2022-11-02T06:57:43;52;50;
70691;PMS5003;58267;51.156;17.044;2022-11-02T07:00:09;55;54;
70691;PMS5003;58267;51.156;17.044;2022-11-02T07:02:34;55;51;
70691;PMS5003;58267;51.156;17.044;2022-11-02T07:04:59;51;50;
70691;PMS5003;58267;51.156;17.044;2022-11-02T07:07:25;55;50;
70691;PMS5003;58267;51.156;17.044;2022-11-02T07:09:51;52;49;
70691;PMS5003;58267;51.156;17.044;2022-11-02T07:12:16;56;54;
70691;PMS5003;58267;51.156;17.044;2022-11-02T07:14:42;55;52;
70691;PMS5003;58267;51.156;17.044;2022-11-02T07:17:07;59;55;
70691;PMS5003;58267;51.156;17.044;2022-11-02T07:19:32;52;50;
70691;PMS5003;58267;51.156;17.044;2022-11-02T07:21:58;50;45;
70691;PMS5003;58267;51.156;17.044;2022-11-02T07:24:24;44;41;
70691;PMS5003;58267;51.156;17.044;2022-11-02T07:26:50;51;49;
70691;PMS5003;58267;51.156;17.044;2022-11-02T07:29:16;50;46;
70691;PMS5003;58267;51.156;17.044;2022-11-02T07:31:41;44;42;
70691;PMS5003;58267;51.156;17.044;2022-11-02T07:34:06;45;41;
70691;PMS5003;58267;51.156;17.044;2022-11-02T07:36:32;34;33;
70691;PMS5003;58267;51.156;17.044;2022-11-02T07:38:57;36;35;
70691;PMS5003;58267;51.156;17.044;2022-11-02T07:41:22;48;42;
70691;PMS5003;58267;51.156;17.044;2022-11-02T07:43:48;38;37;
70691;PMS5003;58267;51.156;17.044;2022-11-02T07:46:14;32;30;
70691;PMS5003;58267;51.156;17.044;2022-11-02T07:48:39;39;38;
70691;PMS5003;58267;51.156;17.044;2022-11-02T07:51:05;41;39;
70691;PMS5003;58267;51.156;17.044;2022-11-02T07:53:31;32;28;
70691;PMS5003;58267;51.156;17.044;2022-11-02T07:55:56;36;33;
70691;PMS5003;58267;51.156;17.044;2022-11-02T07:58:22;37;36;
70691;PMS5003;58267;51.156;17.044;2022-11-02T08:00:47;37;36;
70691;PMS5003;58267;51.156;17.044;2022-11-02T08:03:12;31;30;
70691;PMS5003;58267;51.156;17.044;2022-11-02T08:05:39;33;31;
70691;PMS5003;58267;51.156;17.044;2022-11-02T08:08:04;29;28;
70691;PMS5003;58267;51.156;17.044;2022-11-02T08:10:30;28;27;
70691;PMS5003;58267;51.156;17.044;2022-11-02T08:12:55;37;36;
70691;PMS5003;58267;51.156;17.044;2022-11-02T08:15:20;28;25;
70691;PMS5003;58267;51.156;17.044;2022-11-02T08:17:45;30;27;
70691;PMS5003;58267;51.156;17.044;2022-11-02T08:20:11;31;30;
70691;PMS5003;58267;51.156;17.044;2022-11-02T08:22:36;26;25;
70691;PMS5003;58267;51.156;17.044;2022-11-02T08:25:01;32;29;
70691;PMS5003;58267;51.156;17.044;2022-11-02T08:27:27;29;27;
70691;PMS5003;58267;51.156;17.044;2022-11-02T08:29:52;25;24;
70691;PMS5003;58267;51.156;17.044;2022-11-02T08:32:17;22;22;
70691;PMS5003;58267;51.156;17.044;2022-11-02T08:34:43;22;22;
70691;PMS5003;58267;51.156;17.044;2022-11-02T08:37:08;26;24;
70691;PMS5003;58267;51.156;17.044;2022-11-02T08:39:34;20;18;
70691;PMS5003;58267;51.156;17.044;2022-11-02T08:41:59;19;18;
70691;PMS5003;58267;51.156;17.044;2022-11-02T08:44:25;18;17;
70691;PMS5003;58267;51.156;17.044;2022-11-02T08:46:50;21;18;
70691;PMS5003;58267;51.156;17.044;2022-11-02T08:49:15;20;18;
70691;PMS5003;58267;51.156;17.044;2022-11-02T08:51:41;19;17;
70691;PMS5003;58267;51.156;17.044;2022-11-02T08:54:06;23;22;
70691;PMS5003;58267;51.156;17.044;2022-11-02T08:56:32;16;15;
70691;PMS5003;58267;51.156;17.044;2022-11-02T08:58:57;16;15;
70691;PMS5003;58267;51.156;17.044;2022-11-02T09:01:23;16;14;
70691;PMS5003;58267;51.156;17.044;2022-11-02T09:03:48;17;16;
70691;PMS5003;58267;51.156;17.044;2022-11-02T09:06:13;16;16;
70691;PMS5003;58267;51.156;17.044;2022-11-02T09:08:40;16;16;
70691;PMS5003;58267;51.156;17.044;2022-11-02T09:11:05;11;11;
70691;PMS5003;58267;51.156;17.044;2022-11-02T09:13:30;12;12;
70691;PMS5003;58267;51.156;17.044;2022-11-02T09:15:56;13;12;
70691;PMS5003;58267;51.156;17.044;2022-11-02T09:18:21;13;13;
70691;PMS5003;58267;51.156;17.044;2022-11-02T09:20:46;13;13;
70691;PMS5003;58267;51.156;17.044;2022-11-02T09:23:12;12;10;
70691;PMS5003;58267;51.156;17.044;2022-11-02T09:25:37;12;11;
70691;PMS5003;58267;51.156;17.044;2022-11-02T09:28:02;14;13;
70691;PMS5003;58267;51.156;17.044;2022-11-02T09:30:28;10;9;
70691;PMS5003;58267;51.156;17.044;2022-11-02T09:32:53;10;10;
70691;PMS5003;58267;51.156;17.044;2022-11-02T09:35:19;12;12;
70691;PMS5003;58267;51.156;17.044;2022-11-02T09:37:44;12;11;
70691;PMS5003;58267;51.156;17.044;2022-11-02T09:40:10;8;8;
70691;PMS5003;58267;51.156;17.044;2022-11-02T09:42:36;9;8;
70691;PMS5003;58267;51.156;17.044;2022-11-02T09:45:02;10;9;
70691;PMS5003;58267;51.156;17.044;2022-11-02T09:47:26;10;10;
70691;PMS5003;58267;51.156;17.044;2022-11-02T09:49:51;10;8;
70691;PMS5003;58267;51.156;17.044;2022-11-02T09:52:18;8;8;
70691;PMS5003;58267;51.156;17.044;2022-11-02T09:54:43;11;10;
70691;PMS5003;58267;51.156;17.044;2022-11-02T09:57:08;8;8;
70691;PMS5003;58267;51.156;17.044;2022-11-02T09:59:32;7;7;
70691;PMS5003;58267;51.156;17.044;2022-11-02T10:02:00;12;12;
70691;PMS5003;58267;51.156;17.044;2022-11-02T10:04:27;9;9;
70691;PMS5003;58267;51.156;17.044;2022-11-02T10:06:50;10;10;
70691;PMS5003;58267;51.156;17.044;2022-11-02T10:09:14;7;6;
70691;PMS5003;58267;51.156;17.044;2022-11-02T10:11:42;6;6;
70691;PMS5003;58267;51.156;17.044;2022-11-02T10:14:04;8;7;
70691;PMS5003;58267;51.156;17.044;2022-11-02T10:16:29;5;5;
70691;PMS5003;58267;51.156;17.044;2022-11-02T10:18:54;6;6;
70691;PMS5003;58267;51.156;17.044;2022-11-02T10:21:20;5;5;
70691;PMS5003;58267;51.156;17.044;2022-11-02T10:23:45;7;5;
70691;PMS5003;58267;51.156;17.044;2022-11-02T10:26:12;8;7;
70691;PMS5003;58267;51.156;17.044;2022-11-02T10:28:37;8;7;
70691;PMS5003;58267;51.156;17.044;2022-11-02T10:31:00;9;8;
70691;PMS5003;58267;51.156;17.044;2022-11-02T10:33:27;7;7;
70691;PMS5003;58267;51.156;17.044;2022-11-02T10:35:53;7;7;
70691;PMS5003;58267;51.156;17.044;2022-11-02T10:38:19;7;6;
70691;PMS5003;58267;51.156;17.044;2022-11-02T10:40:45;9;9;
70691;PMS5003;58267;51.156;17.044;2022-11-02T10:43:10;8;7;
70691;PMS5003;58267;51.156;17.044;2022-11-02T10:45:37;5;5;
70691;PMS5003;58267;51.156;17.044;2022-11-02T10:47:59;8;7;
70691;PMS5003;58267;51.156;17.044;2022-11-02T10:52:49;8;7;
70691;PMS5003;58267;51.156;17.044;2022-11-02T10:55:18;5;5;
70691;PMS5003;58267;51.156;17.044;2022-11-02T10:57:39;6;6;
70691;PMS5003;58267;51.156;17.044;2022-11-02T11:02:29;9;7;
70691;PMS5003;58267;51.156;17.044;2022-11-02T11:04:55;7;6;
70691;PMS5003;58267;51.156;17.044;2022-11-02T11:07:21;6;6;
70691;PMS5003;58267;51.156;17.044;2022-11-02T11:09:47;5;5;
70691;PMS5003;58267;51.156;17.044;2022-11-02T11:12:12;5;5;
70691;PMS5003;58267;51.156;17.044;2022-11-02T11:14:36;7;6;
70691;PMS5003;58267;51.156;17.044;2022-11-02T11:17:01;3;3;
70691;PMS5003;58267;51.156;17.044;2022-11-02T11:19:28;6;5;
70691;PMS5003;58267;51.156;17.044;2022-11-02T11:21:51;8;7;
70691;PMS5003;58267;51.156;17.044;2022-11-02T11:24:19;6;5;
70691;PMS5003;58267;51.156;17.044;2022-11-02T11:26:41;5;5;
70691;PMS5003;58267;51.156;17.044;2022-11-02T11:29:11;6;6;
70691;PMS5003;58267;51.156;17.044;2022-11-02T11:31:32;5;5;
70691;PMS5003;58267;51.156;17.044;2022-11-02T11:33:57;6;6;
70691;PMS5003;58267;51.156;17.044;2022-11-02T11:36:23;4;4;
70691;PMS5003;58267;51.156;17.044;2022-11-02T11:38:47;7;6;
70691;PMS5003;58267;51.156;17.044;2022-11-02T11:41:12;5;5;
70691;PMS5003;58267;51.156;17.044;2022-11-02T11:43:38;5;5;
70691;PMS5003;58267;51.156;17.044;2022-11-02T11:46:03;6;6;
70691;PMS5003;58267;51.156;17.044;2022-11-02T11:48:30;6;6;
70691;PMS5003;58267;51.156;17.044;2022-11-02T11:50:53;4;4;
70691;PMS5003;58267;51.156;17.044;2022-11-02T11:53:19;5;5;
70691;PMS5003;58267;51.156;17.044;2022-11-02T11:55:45;4;4;
70691;PMS5003;58267;51.156;17.044;2022-11-02T11:58:12;7;7;
70691;PMS5003;58267;51.156;17.044;2022-11-02T12:00:34;3;3;
70691;PMS5003;58267;51.156;17.044;2022-11-02T12:03:03;6;6;
70691;PMS5003;58267;51.156;17.044;2022-11-02T12:05:24;6;6;
70691;PMS5003;58267;51.156;17.044;2022-11-02T12:07:56;6;6;
70691;PMS5003;58267;51.156;17.044;2022-11-02T12:10:15;6;6;
70691;PMS5003;58267;51.156;17.044;2022-11-02T12:12:44;6;6;
70691;PMS5003;58267;51.156;17.044;2022-11-02T12:15:10;6;6;
70691;PMS5003;58267;51.156;17.044;2022-11-02T12:17:34;5;5;
70691;PMS5003;58267;51.156;17.044;2022-11-02T12:20:01;5;5;
70691;PMS5003;58267;51.156;17.044;2022-11-02T12:22:22;7;6;
70691;PMS5003;58267;51.156;17.044;2022-11-02T12:24:52;7;6;
70691;PMS5003;58267;51.156;17.044;2022-11-02T12:27:16;4;4;
70691;PMS5003;58267;51.156;17.044;2022-11-02T12:29:42;6;6;
70691;PMS5003;58267;51.156;17.044;2022-11-02T12:32:04;6;6;
70691;PMS5003;58267;51.156;17.044;2022-11-02T12:34:32;6;5;
70691;PMS5003;58267;51.156;17.044;2022-11-02T12:36:56;6;6;
70691;PMS5003;58267;51.156;17.044;2022-11-02T12:39:19;7;7;
70691;PMS5003;58267;51.156;17.044;2022-11-02T12:41:45;3;3;
70691;PMS5003;58267;51.156;17.044;2022-11-02T12:44:12;7;6;
70691;PMS5003;58267;51.156;17.044;2022-11-02T12:46:34;6;5;
70691;PMS5003;58267;51.156;17.044;2022-11-02T12:49:03;5;5;
70691;PMS5003;58267;51.156;17.044;2022-11-02T12:51:23;6;6;
70691;PMS5003;58267;51.156;17.044;2022-11-02T12:53:49;5;5;
70691;PMS5003;58267;51.156;17.044;2022-11-02T12:56:16;6;6;
70691;PMS5003;58267;51.156;17.044;2022-11-02T12:58:39;5;5;
70691;PMS5003;58267;51.156;17.044;2022-11-02T13:01:06;9;7;
70691;PMS5003;58267;51.156;17.044;2022-11-02T13:03:33;5;5;
70691;PMS5003;58267;51.156;17.044;2022-11-02T13:05:55;6;5;
70691;PMS5003;58267;51.156;17.044;2022-11-02T13:08:20;6;6;
70691;PMS5003;58267;51.156;17.044;2022-11-02T13:10:46;7;7;
70691;PMS5003;58267;51.156;17.044;2022-11-02T13:13:12;5;5;
70691;PMS5003;58267;51.156;17.044;2022-11-02T13:15:35;7;7;
70691;PMS5003;58267;51.156;17.044;2022-11-02T13:18:02;6;4;
70691;PMS5003;58267;51.156;17.044;2022-11-02T13:20:26;7;5;
70691;PMS5003;58267;51.156;17.044;2022-11-02T13:22:53;4;4;
70691;PMS5003;58267;51.156;17.044;2022-11-02T13:25:17;4;4;
70691;PMS5003;58267;51.156;17.044;2022-11-02T13:27:45;5;5;
70691;PMS5003;58267;51.156;17.044;2022-11-02T13:30:12;4;4;
70691;PMS5003;58267;51.156;17.044;2022-11-02T13:32:31;8;5;
70691;PMS5003;58267;51.156;17.044;2022-11-02T13:34:56;6;6;
70691;PMS5003;58267;51.156;17.044;2022-11-02T13:37:22;3;3;
70691;PMS5003;58267;51.156;17.044;2022-11-02T13:39:47;2;2;
70691;PMS5003;58267;51.156;17.044;2022-11-02T13:44:44;5;4;
70691;PMS5003;58267;51.156;17.044;2022-11-02T13:47:06;5;5;
70691;PMS5003;58267;51.156;17.044;2022-11-02T13:49:28;6;6;
70691;PMS5003;58267;51.156;17.044;2022-11-02T13:51:53;7;6;
70691;PMS5003;58267;51.156;17.044;2022-11-02T13:54:18;8;8;
70691;PMS5003;58267;51.156;17.044;2022-11-02T13:56:43;7;6;
70691;PMS5003;58267;51.156;17.044;2022-11-02T13:59:08;7;6;
70691;PMS5003;58267;51.156;17.044;2022-11-02T14:01:33;7;5;
70691;PMS5003;58267;51.156;17.044;2022-11-02T14:04:01;5;4;
70691;PMS5003;58267;51.156;17.044;2022-11-02T14:06:24;8;8;
70691;PMS5003;58267;51.156;17.044;2022-11-02T14:08:50;7;7;
70691;PMS5003;58267;51.156;17.044;2022-11-02T14:16:06;7;7;
70691;PMS5003;58267;51.156;17.044;2022-11-02T14:18:31;6;5;
70691;PMS5003;58267;51.156;17.044;2022-11-02T14:20:56;8;6;
70691;PMS5003;58267;51.156;17.044;2022-11-02T14:25:46;8;8;
70691;PMS5003;58267;51.156;17.044;2022-11-02T14:30:41;6;5;
70691;PMS5003;58267;51.156;17.044;2022-11-02T14:33:02;8;8;
70691;PMS5003;58267;51.156;17.044;2022-11-02T14:35:31;6;6;
70691;PMS5003;58267;51.156;17.044;2022-11-02T14:38:04;9;9;
70691;PMS5003;58267;51.156;17.044;2022-11-02T14:40:20;9;9;
70691;PMS5003;58267;51.156;17.044;2022-11-02T14:42:51;9;8;
70691;PMS5003;58267;51.156;17.044;2022-11-02T14:47:36;6;6;
70691;PMS5003;58267;51.156;17.044;2022-11-02T14:50:02;9;9;
70691;PMS5003;58267;51.156;17.044;2022-11-02T14:52:26;10;9;
70691;PMS5003;58267;51.156;17.044;2022-11-02T14:54:51;6;6;
70691;PMS5003;58267;51.156;17.044;2022-11-02T14:57:17;8;8;
70691;PMS5003;58267;51.156;17.044;2022-11-02T14:59:43;8;8;
70691;PMS5003;58267;51.156;17.044;2022-11-02T15:02:07;8;8;
70691;PMS5003;58267;51.156;17.044;2022-11-02T15:04:32;7;6;
70691;PMS5003;58267;51.156;17.044;2022-11-02T15:06:57;10;9;
70691;PMS5003;58267;51.156;17.044;2022-11-02T15:11:47;9;9;
70691;PMS5003;58267;51.156;17.044;2022-11-02T15:16:38;8;7;
70691;PMS5003;58267;51.156;17.044;2022-11-02T15:21:28;11;11;
70691;PMS5003;58267;51.156;17.044;2022-11-02T15:26:23;10;9;
70691;PMS5003;58267;51.156;17.044;2022-11-02T15:28:44;9;9;
70691;PMS5003;58267;51.156;17.044;2022-11-02T15:31:13;8;8;
70691;PMS5003;58267;51.156;17.044;2022-11-02T15:33:36;10;9;
70691;PMS5003;58267;51.156;17.044;2022-11-02T15:36:01;11;10;
70691;PMS5003;58267;51.156;17.044;2022-11-02T15:38:27;8;6;
70691;PMS5003;58267;51.156;17.044;2022-11-02T15:40:53;9;9;
70691;PMS5003;58267;51.156;17.044;2022-11-02T15:45:45;9;9;
70691;PMS5003;58267;51.156;17.044;2022-11-02T15:48:10;7;7;
70691;PMS5003;58267;51.156;17.044;2022-11-02T15:50:34;8;8;
70691;PMS5003;58267;51.156;17.044;2022-11-02T15:53:03;12;12;
70691;PMS5003;58267;51.156;17.044;2022-11-02T15:55:24;10;10;
70691;PMS5003;58267;51.156;17.044;2022-11-02T15:57:51;9;9;
70691;PMS5003;58267;51.156;17.044;2022-11-02T16:00:14;11;11;
70691;PMS5003;58267;51.156;17.044;2022-11-02T16:02:39;12;11;
70691;PMS5003;58267;51.156;17.044;2022-11-02T16:05:04;9;9;
70691;PMS5003;58267;51.156;17.044;2022-11-02T16:07:29;10;9;
70691;PMS5003;58267;51.156;17.044;2022-11-02T16:12:21;14;13;
70691;PMS5003;58267;51.156;17.044;2022-11-02T16:14:50;13;12;
70691;PMS5003;58267;51.156;17.044;2022-11-02T16:19:36;13;13;
70691;PMS5003;58267;51.156;17.044;2022-11-02T16:22:01;15;15;
70691;PMS5003;58267;51.156;17.044;2022-11-02T16:24:26;15;15;
70691;PMS5003;58267;51.156;17.044;2022-11-02T16:26:51;13;12;
70691;PMS5003;58267;51.156;17.044;2022-11-02T16:29:20;12;11;
70691;PMS5003;58267;51.156;17.044;2022-11-02T16:31:42;14;13;
70691;PMS5003;58267;51.156;17.044;2022-11-02T16:34:12;12;12;
70691;PMS5003;58267;51.156;17.044;2022-11-02T16:36:34;18;15;
70691;PMS5003;58267;51.156;17.044;2022-11-02T16:38:58;20;18;